sensor_id;sensor_type;location;lat;lon;timestamp;temperature;humidity
29725;DHT22;16636;48.394;15.468;2023-02-15T00:02:26;3.30;99.90
29725;DHT22;16636;48.394;15.468;2023-02-15T00:04:52;3.30;99.90
29725;DHT22;16636;48.394;15.468;2023-02-15T00:07:19;3.30;99.90
29725;DHT22;16636;48.394;15.468;2023-02-15T00:09:48;3.30;99.90
29725;DHT22;16636;48.394;15.468;2023-02-15T00:12:42;3.30;99.90
29725;DHT22;16636;48.394;15.468;2023-02-15T00:15:08;3.30;99.90
29725;DHT22;16636;48.394;15.468;2023-02-15T00:17:35;3.30;99.90
29725;DHT22;16636;48.394;15.468;2023-02-15T00:20:01;3.30;99.90
29725;DHT22;16636;48.394;15.468;2023-02-15T00:22:27;3.30;99.90
29725;DHT22;16636;48.394;15.468;2023-02-15T00:24:53;3.30;99.90
29725;DHT22;16636;48.394;15.468;2023-02-15T00:27:20;3.30;99.90
29725;DHT22;16636;48.394;15.468;2023-02-15T00:29:46;3.40;99.90
29725;DHT22;16636;48.394;15.468;2023-02-15T00:32:14;3.30;99.90
29725;DHT22;16636;48.394;15.468;2023-02-15T00:34:41;3.30;99.90
29725;DHT22;16636;48.394;15.468;2023-02-15T00:37:07;3.30;99.90
29725;DHT22;16636;48.394;15.468;2023-02-15T00:39:33;3.30;99.90
29725;DHT22;16636;48.394;15.468;2023-02-15T00:41:59;3.30;99.90
29725;DHT22;16636;48.394;15.468;2023-02-15T00:44:25;3.30;99.90
29725;DHT22;16636;48.394;15.468;2023-02-15T00:46:53;3.30;99.90
29725;DHT22;16636;48.394;15.468;2023-02-15T00:49:20;3.30;99.90
29725;DHT22;16636;48.394;15.468;2023-02-15T00:51:46;3.30;99.90
29725;DHT22;16636;48.394;15.468;2023-02-15T00:54:12;3.30;99.90
29725;DHT22;16636;48.394;15.468;2023-02-15T00:56:39;3.30;99.90
29725;DHT22;16636;48.394;15.468;2023-02-15T00:59:05;3.30;99.90
29725;DHT22;16636;48.394;15.468;2023-02-15T01:01:32;3.30;99.90
29725;DHT22;16636;48.394;15.468;2023-02-15T01:03:58;3.30;99.90
29725;DHT22;16636;48.394;15.468;2023-02-15T01:06:24;3.30;99.90
29725;DHT22;16636;48.394;15.468;2023-02-15T01:08:51;3.30;99.90
29725;DHT22;16636;48.394;15.468;2023-02-15T01:11:19;3.30;99.90
29725;DHT22;16636;48.394;15.468;2023-02-15T01:13:49;3.30;99.90
29725;DHT22;16636;48.394;15.468;2023-02-15T01:16:16;3.30;99.90
29725;DHT22;16636;48.394;15.468;2023-02-15T01:18:42;3.30;99.90
29725;DHT22;16636;48.394;15.468;2023-02-15T01:21:16;3.30;99.90
29725;DHT22;16636;48.394;15.468;2023-02-15T01:23:44;3.30;99.90
29725;DHT22;16636;48.394;15.468;2023-02-15T01:26:12;3.30;99.90
29725;DHT22;16636;48.394;15.468;2023-02-15T01:28:39;3.30;99.90
29725;DHT22;16636;48.394;15.468;2023-02-15T01:31:15;3.30;99.90
29725;DHT22;16636;48.394;15.468;2023-02-15T01:33:45;3.30;99.90
29725;DHT22;16636;48.394;15.468;2023-02-15T01:36:12;3.30;99.90
29725;DHT22;16636;48.394;15.468;2023-02-15T01:38:38;3.30;99.90
29725;DHT22;16636;48.394;15.468;2023-02-15T01:41:06;3.20;99.90
29725;DHT22;16636;48.394;15.468;2023-02-15T01:43:59;3.20;99.90
29725;DHT22;16636;48.394;15.468;2023-02-15T01:46:48;3.20;99.90
29725;DHT22;16636;48.394;15.468;2023-02-15T01:49:27;3.20;99.90
29725;DHT22;16636;48.394;15.468;2023-02-15T01:51:54;3.20;99.90
29725;DHT22;16636;48.394;15.468;2023-02-15T01:54:32;3.20;99.90
29725;DHT22;16636;48.394;15.468;2023-02-15T01:57:10;3.20;99.90
29725;DHT22;16636;48.394;15.468;2023-02-15T01:59:39;3.20;99.90
29725;DHT22;16636;48.394;15.468;2023-02-15T02:02:10;3.20;99.90
29725;DHT22;16636;48.394;15.468;2023-02-15T02:04:45;3.20;99.90
29725;DHT22;16636;48.394;15.468;2023-02-15T02:07:14;3.20;99.90
29725;DHT22;16636;48.394;15.468;2023-02-15T02:09:41;3.20;99.90
29725;DHT22;16636;48.394;15.468;2023-02-15T02:12:08;3.20;99.90
29725;DHT22;16636;48.394;15.468;2023-02-15T02:14:35;3.20;99.90
29725;DHT22;16636;48.394;15.468;2023-02-15T02:17:21;3.20;99.90
29725;DHT22;16636;48.394;15.468;2023-02-15T02:19:59;3.20;99.90
29725;DHT22;16636;48.394;15.468;2023-02-15T02:25:21;3.20;99.90
29725;DHT22;16636;48.394;15.468;2023-02-15T02:28:57;3.10;99.90
29725;DHT22;16636;48.394;15.468;2023-02-15T02:39:05;3.10;99.90
29725;DHT22;16636;48.394;15.468;2023-02-15T02:44:17;3.10;99.90
29725;DHT22;16636;48.394;15.468;2023-02-15T02:46:59;3.10;99.90
29725;DHT22;16636;48.394;15.468;2023-02-15T02:49:42;3.10;99.90
29725;DHT22;16636;48.394;15.468;2023-02-15T02:55:01;3.10;99.90
29725;DHT22;16636;48.394;15.468;2023-02-15T02:57:28;3.00;99.90
29725;DHT22;16636;48.394;15.468;2023-02-15T02:59:56;3.10;99.90
29725;DHT22;16636;48.394;15.468;2023-02-15T03:02:27;3.10;99.90
29725;DHT22;16636;48.394;15.468;2023-02-15T03:05:01;3.10;99.90
29725;DHT22;16636;48.394;15.468;2023-02-15T03:07:30;3.00;99.90
29725;DHT22;16636;48.394;15.468;2023-02-15T03:10:00;3.10;99.90
29725;DHT22;16636;48.394;15.468;2023-02-15T03:12:36;3.00;99.90
29725;DHT22;16636;48.394;15.468;2023-02-15T03:15:06;3.10;99.90
29725;DHT22;16636;48.394;15.468;2023-02-15T03:17:38;3.10;99.90
29725;DHT22;16636;48.394;15.468;2023-02-15T03:20:14;3.00;99.90
29725;DHT22;16636;48.394;15.468;2023-02-15T03:22:53;3.00;99.90
29725;DHT22;16636;48.394;15.468;2023-02-15T03:25:23;3.00;99.90
29725;DHT22;16636;48.394;15.468;2023-02-15T03:27:59;3.00;99.90
29725;DHT22;16636;48.394;15.468;2023-02-15T03:30:28;3.00;99.90
29725;DHT22;16636;48.394;15.468;2023-02-15T03:32:58;3.00;99.90
29725;DHT22;16636;48.394;15.468;2023-02-15T03:35:30;3.00;99.90
29725;DHT22;16636;48.394;15.468;2023-02-15T03:38:00;3.00;99.90
29725;DHT22;16636;48.394;15.468;2023-02-15T03:40:38;2.90;99.90
29725;DHT22;16636;48.394;15.468;2023-02-15T03:43:28;3.00;99.90
29725;DHT22;16636;48.394;15.468;2023-02-15T03:46:02;2.90;99.90
29725;DHT22;16636;48.394;15.468;2023-02-15T03:48:39;2.90;99.90
29725;DHT22;16636;48.394;15.468;2023-02-15T03:51:12;2.90;99.90
29725;DHT22;16636;48.394;15.468;2023-02-15T03:54:09;2.90;99.90
29725;DHT22;16636;48.394;15.468;2023-02-15T03:56:39;2.90;99.90
29725;DHT22;16636;48.394;15.468;2023-02-15T03:59:06;2.90;99.90
29725;DHT22;16636;48.394;15.468;2023-02-15T04:02:33;2.90;99.90
29725;DHT22;16636;48.394;15.468;2023-02-15T04:04:45;2.90;99.90
29725;DHT22;16636;48.394;15.468;2023-02-15T04:07:11;2.90;99.90
29725;DHT22;16636;48.394;15.468;2023-02-15T04:09:37;2.90;99.90
29725;DHT22;16636;48.394;15.468;2023-02-15T04:12:22;3.00;99.90
29725;DHT22;16636;48.394;15.468;2023-02-15T04:14:48;3.00;99.90
29725;DHT22;16636;48.394;15.468;2023-02-15T04:17:33;3.00;99.90
29725;DHT22;16636;48.394;15.468;2023-02-15T04:19:59;3.00;99.90
29725;DHT22;16636;48.394;15.468;2023-02-15T04:22:44;3.00;99.90
29725;DHT22;16636;48.394;15.468;2023-02-15T04:25:28;2.90;99.90
29725;DHT22;16636;48.394;15.468;2023-02-15T04:27:54;2.90;99.90
29725;DHT22;16636;48.394;15.468;2023-02-15T04:30:24;2.90;99.90
29725;DHT22;16636;48.394;15.468;2023-02-15T04:32:51;2.90;99.90
29725;DHT22;16636;48.394;15.468;2023-02-15T04:35:18;2.90;99.90
29725;DHT22;16636;48.394;15.468;2023-02-15T04:37:44;2.90;99.90
29725;DHT22;16636;48.394;15.468;2023-02-15T04:40:12;2.90;99.90
29725;DHT22;16636;48.394;15.468;2023-02-15T04:42:39;2.90;99.90
29725;DHT22;16636;48.394;15.468;2023-02-15T04:45:05;2.90;99.90
29725;DHT22;16636;48.394;15.468;2023-02-15T04:47:31;2.90;99.90
29725;DHT22;16636;48.394;15.468;2023-02-15T04:49:58;2.90;99.90
29725;DHT22;16636;48.394;15.468;2023-02-15T04:52:24;2.90;99.90
29725;DHT22;16636;48.394;15.468;2023-02-15T04:54:50;2.90;99.90
29725;DHT22;16636;48.394;15.468;2023-02-15T04:57:16;2.90;99.90
29725;DHT22;16636;48.394;15.468;2023-02-15T04:59:42;2.90;99.90
29725;DHT22;16636;48.394;15.468;2023-02-15T05:02:08;2.90;99.90
29725;DHT22;16636;48.394;15.468;2023-02-15T05:04:34;2.90;99.90
29725;DHT22;16636;48.394;15.468;2023-02-15T05:07:00;2.90;99.90
29725;DHT22;16636;48.394;15.468;2023-02-15T05:09:26;2.90;99.90
29725;DHT22;16636;48.394;15.468;2023-02-15T05:11:52;2.90;99.90
29725;DHT22;16636;48.394;15.468;2023-02-15T05:14:18;2.90;99.90
29725;DHT22;16636;48.394;15.468;2023-02-15T05:16:44;2.90;99.90
29725;DHT22;16636;48.394;15.468;2023-02-15T05:19:10;2.80;99.90
29725;DHT22;16636;48.394;15.468;2023-02-15T05:21:36;2.80;99.90
29725;DHT22;16636;48.394;15.468;2023-02-15T05:24:02;2.80;99.90
29725;DHT22;16636;48.394;15.468;2023-02-15T05:26:48;2.80;99.90
29725;DHT22;16636;48.394;15.468;2023-02-15T05:29:33;2.80;99.90
29725;DHT22;16636;48.394;15.468;2023-02-15T05:31:59;2.80;99.90
29725;DHT22;16636;48.394;15.468;2023-02-15T05:34:25;2.80;99.90
29725;DHT22;16636;48.394;15.468;2023-02-15T05:36:51;2.80;99.90
29725;DHT22;16636;48.394;15.468;2023-02-15T05:39:16;2.80;99.90
29725;DHT22;16636;48.394;15.468;2023-02-15T05:41:42;2.80;99.90
29725;DHT22;16636;48.394;15.468;2023-02-15T05:44:08;2.80;99.90
29725;DHT22;16636;48.394;15.468;2023-02-15T05:46:34;2.70;99.90
29725;DHT22;16636;48.394;15.468;2023-02-15T05:49:00;2.70;99.90
29725;DHT22;16636;48.394;15.468;2023-02-15T05:51:26;2.70;99.90
29725;DHT22;16636;48.394;15.468;2023-02-15T05:53:52;2.80;99.90
29725;DHT22;16636;48.394;15.468;2023-02-15T05:56:18;2.70;99.90
29725;DHT22;16636;48.394;15.468;2023-02-15T05:58:44;2.70;99.90
29725;DHT22;16636;48.394;15.468;2023-02-15T06:01:15;2.70;99.90
29725;DHT22;16636;48.394;15.468;2023-02-15T06:03:43;2.70;99.90
29725;DHT22;16636;48.394;15.468;2023-02-15T06:06:09;2.70;99.90
29725;DHT22;16636;48.394;15.468;2023-02-15T06:08:37;2.70;99.90
29725;DHT22;16636;48.394;15.468;2023-02-15T06:11:04;2.70;99.90
29725;DHT22;16636;48.394;15.468;2023-02-15T06:13:30;2.70;99.90
29725;DHT22;16636;48.394;15.468;2023-02-15T06:15:56;2.70;99.90
29725;DHT22;16636;48.394;15.468;2023-02-15T06:18:23;2.70;99.90
29725;DHT22;16636;48.394;15.468;2023-02-15T06:20:49;2.70;99.90
29725;DHT22;16636;48.394;15.468;2023-02-15T06:23:15;2.70;99.90
29725;DHT22;16636;48.394;15.468;2023-02-15T06:25:41;2.70;99.90
29725;DHT22;16636;48.394;15.468;2023-02-15T06:28:07;2.70;99.90
29725;DHT22;16636;48.394;15.468;2023-02-15T06:30:33;2.70;99.90
29725;DHT22;16636;48.394;15.468;2023-02-15T06:32:59;2.60;99.90
29725;DHT22;16636;48.394;15.468;2023-02-15T06:35:25;2.60;99.90
29725;DHT22;16636;48.394;15.468;2023-02-15T06:37:51;2.60;99.90
29725;DHT22;16636;48.394;15.468;2023-02-15T06:40:17;2.60;99.90
29725;DHT22;16636;48.394;15.468;2023-02-15T06:42:43;2.60;99.90
29725;DHT22;16636;48.394;15.468;2023-02-15T06:45:10;2.60;99.90
29725;DHT22;16636;48.394;15.468;2023-02-15T06:47:36;2.60;99.90
29725;DHT22;16636;48.394;15.468;2023-02-15T06:50:04;2.60;99.90
29725;DHT22;16636;48.394;15.468;2023-02-15T06:52:30;2.70;99.90
29725;DHT22;16636;48.394;15.468;2023-02-15T06:54:56;2.60;99.90
29725;DHT22;16636;48.394;15.468;2023-02-15T06:57:22;2.60;99.90
29725;DHT22;16636;48.394;15.468;2023-02-15T06:59:48;2.60;99.90
29725;DHT22;16636;48.394;15.468;2023-02-15T07:02:14;2.70;99.90
29725;DHT22;16636;48.394;15.468;2023-02-15T07:04:41;2.70;99.90
29725;DHT22;16636;48.394;15.468;2023-02-15T07:07:11;2.70;99.90
29725;DHT22;16636;48.394;15.468;2023-02-15T07:09:37;2.70;99.90
29725;DHT22;16636;48.394;15.468;2023-02-15T07:12:04;2.70;99.90
29725;DHT22;16636;48.394;15.468;2023-02-15T07:14:49;2.70;99.90
29725;DHT22;16636;48.394;15.468;2023-02-15T07:17:15;2.60;99.90
29725;DHT22;16636;48.394;15.468;2023-02-15T07:19:41;2.60;99.90
29725;DHT22;16636;48.394;15.468;2023-02-15T07:22:07;2.60;99.90
29725;DHT22;16636;48.394;15.468;2023-02-15T07:24:33;2.60;99.90
29725;DHT22;16636;48.394;15.468;2023-02-15T07:26:59;2.60;99.90
29725;DHT22;16636;48.394;15.468;2023-02-15T07:29:25;2.60;99.90
29725;DHT22;16636;48.394;15.468;2023-02-15T07:31:51;2.60;99.90
29725;DHT22;16636;48.394;15.468;2023-02-15T07:34:17;2.60;99.90
29725;DHT22;16636;48.394;15.468;2023-02-15T07:36:43;2.60;99.90
29725;DHT22;16636;48.394;15.468;2023-02-15T07:39:11;2.60;99.90
29725;DHT22;16636;48.394;15.468;2023-02-15T07:41:37;2.70;99.90
29725;DHT22;16636;48.394;15.468;2023-02-15T07:44:14;2.70;99.90
29725;DHT22;16636;48.394;15.468;2023-02-15T07:46:40;2.70;99.90
29725;DHT22;16636;48.394;15.468;2023-02-15T07:49:06;2.70;99.90
29725;DHT22;16636;48.394;15.468;2023-02-15T07:51:32;2.70;99.90
29725;DHT22;16636;48.394;15.468;2023-02-15T07:53:59;2.70;99.90
29725;DHT22;16636;48.394;15.468;2023-02-15T07:56:24;2.70;99.90
29725;DHT22;16636;48.394;15.468;2023-02-15T07:58:50;2.80;99.90
29725;DHT22;16636;48.394;15.468;2023-02-15T08:03:48;2.80;99.90
29725;DHT22;16636;48.394;15.468;2023-02-15T08:06:14;2.80;99.90
29725;DHT22;16636;48.394;15.468;2023-02-15T08:08:41;2.80;99.90
29725;DHT22;16636;48.394;15.468;2023-02-15T08:11:20;2.80;99.90
29725;DHT22;16636;48.394;15.468;2023-02-15T08:16:23;2.90;99.90
29725;DHT22;16636;48.394;15.468;2023-02-15T08:18:51;2.90;99.90
29725;DHT22;16636;48.394;15.468;2023-02-15T08:21:18;2.90;99.90
29725;DHT22;16636;48.394;15.468;2023-02-15T08:23:44;2.90;99.90
29725;DHT22;16636;48.394;15.468;2023-02-15T08:26:10;2.90;99.90
29725;DHT22;16636;48.394;15.468;2023-02-15T08:28:36;2.90;99.90
29725;DHT22;16636;48.394;15.468;2023-02-15T08:31:10;2.90;99.90
29725;DHT22;16636;48.394;15.468;2023-02-15T08:33:38;2.90;99.90
29725;DHT22;16636;48.394;15.468;2023-02-15T08:36:16;2.90;99.90
29725;DHT22;16636;48.394;15.468;2023-02-15T08:38:43;3.00;99.90
29725;DHT22;16636;48.394;15.468;2023-02-15T08:41:18;3.00;99.90
29725;DHT22;16636;48.394;15.468;2023-02-15T08:43:49;3.00;99.90
29725;DHT22;16636;48.394;15.468;2023-02-15T08:46:17;3.00;99.90
29725;DHT22;16636;48.394;15.468;2023-02-15T08:48:44;3.00;99.90
29725;DHT22;16636;48.394;15.468;2023-02-15T08:51:21;3.00;99.90
29725;DHT22;16636;48.394;15.468;2023-02-15T08:53:53;3.00;99.90
29725;DHT22;16636;48.394;15.468;2023-02-15T08:56:22;3.00;99.90
29725;DHT22;16636;48.394;15.468;2023-02-15T08:58:48;3.00;99.90
29725;DHT22;16636;48.394;15.468;2023-02-15T09:01:16;3.10;99.90
29725;DHT22;16636;48.394;15.468;2023-02-15T09:03:47;3.10;99.90
29725;DHT22;16636;48.394;15.468;2023-02-15T09:06:16;3.10;99.90
29725;DHT22;16636;48.394;15.468;2023-02-15T09:08:42;3.10;99.90
29725;DHT22;16636;48.394;15.468;2023-02-15T09:11:14;3.20;99.90
29725;DHT22;16636;48.394;15.468;2023-02-15T09:13:42;3.20;99.90
29725;DHT22;16636;48.394;15.468;2023-02-15T09:16:09;3.20;99.90
29725;DHT22;16636;48.394;15.468;2023-02-15T09:18:37;3.20;99.90
29725;DHT22;16636;48.394;15.468;2023-02-15T09:21:09;3.20;99.90
29725;DHT22;16636;48.394;15.468;2023-02-15T09:23:35;3.30;99.90
29725;DHT22;16636;48.394;15.468;2023-02-15T09:26:03;3.30;99.90
29725;DHT22;16636;48.394;15.468;2023-02-15T09:28:29;3.30;99.90
29725;DHT22;16636;48.394;15.468;2023-02-15T09:30:56;3.30;99.90
29725;DHT22;16636;48.394;15.468;2023-02-15T09:33:22;3.30;99.90
29725;DHT22;16636;48.394;15.468;2023-02-15T09:35:50;3.30;99.90
29725;DHT22;16636;48.394;15.468;2023-02-15T09:38:16;3.30;99.90
29725;DHT22;16636;48.394;15.468;2023-02-15T09:40:54;3.40;99.90
29725;DHT22;16636;48.394;15.468;2023-02-15T09:43:38;3.40;99.90
29725;DHT22;16636;48.394;15.468;2023-02-15T09:46:18;3.40;99.90
29725;DHT22;16636;48.394;15.468;2023-02-15T09:48:52;3.40;99.90
29725;DHT22;16636;48.394;15.468;2023-02-15T09:51:25;3.50;99.90
29725;DHT22;16636;48.394;15.468;2023-02-15T09:57:07;3.50;99.90
29725;DHT22;16636;48.394;15.468;2023-02-15T09:59:49;3.50;99.90
29725;DHT22;16636;48.394;15.468;2023-02-15T10:03:10;3.50;99.90
29725;DHT22;16636;48.394;15.468;2023-02-15T10:11:12;3.60;99.90
29725;DHT22;16636;48.394;15.468;2023-02-15T10:17:16;3.80;99.90
29725;DHT22;16636;48.394;15.468;2023-02-15T10:23:08;3.80;99.90
29725;DHT22;16636;48.394;15.468;2023-02-15T10:34:18;4.10;99.90
29725;DHT22;16636;48.394;15.468;2023-02-15T10:50:41;4.50;99.90
29725;DHT22;16636;48.394;15.468;2023-02-15T10:56:15;4.60;99.90
29725;DHT22;16636;48.394;15.468;2023-02-15T10:58:55;4.70;99.90
29725;DHT22;16636;48.394;15.468;2023-02-15T11:01:34;5.00;99.90
29725;DHT22;16636;48.394;15.468;2023-02-15T11:06:40;5.20;99.90
29725;DHT22;16636;48.394;15.468;2023-02-15T11:09:12;5.50;99.90
29725;DHT22;16636;48.394;15.468;2023-02-15T11:11:40;5.80;99.90
29725;DHT22;16636;48.394;15.468;2023-02-15T11:14:19;5.90;99.90
29725;DHT22;16636;48.394;15.468;2023-02-15T11:16:50;6.10;99.90
29725;DHT22;16636;48.394;15.468;2023-02-15T11:19:36;6.20;99.90
29725;DHT22;16636;48.394;15.468;2023-02-15T11:22:05;6.10;99.90
29725;DHT22;16636;48.394;15.468;2023-02-15T11:24:37;6.20;99.90
29725;DHT22;16636;48.394;15.468;2023-02-15T11:32:34;6.70;99.90
29725;DHT22;16636;48.394;15.468;2023-02-15T11:40:03;6.40;99.90
29725;DHT22;16636;48.394;15.468;2023-02-15T11:42:38;6.20;99.90
29725;DHT22;16636;48.394;15.468;2023-02-15T11:45:19;6.40;99.90
29725;DHT22;16636;48.394;15.468;2023-02-15T11:47:48;6.60;99.90
29725;DHT22;16636;48.394;15.468;2023-02-15T11:50:22;6.80;99.90
29725;DHT22;16636;48.394;15.468;2023-02-15T11:52:50;6.70;99.90
29725;DHT22;16636;48.394;15.468;2023-02-15T11:55:22;6.90;99.90
29725;DHT22;16636;48.394;15.468;2023-02-15T11:58:05;6.90;99.90
29725;DHT22;16636;48.394;15.468;2023-02-15T12:00:43;7.00;99.90
29725;DHT22;16636;48.394;15.468;2023-02-15T12:03:41;7.00;99.90
29725;DHT22;16636;48.394;15.468;2023-02-15T12:06:21;7.10;99.90
29725;DHT22;16636;48.394;15.468;2023-02-15T12:09:14;7.20;99.90
29725;DHT22;16636;48.394;15.468;2023-02-15T12:11:43;7.50;99.90
29725;DHT22;16636;48.394;15.468;2023-02-15T12:14:11;7.60;99.90
29725;DHT22;16636;48.394;15.468;2023-02-15T12:16:49;7.40;99.90
29725;DHT22;16636;48.394;15.468;2023-02-15T12:19:31;7.40;99.90
29725;DHT22;16636;48.394;15.468;2023-02-15T12:22:00;7.60;99.90
29725;DHT22;16636;48.394;15.468;2023-02-15T12:24:33;7.60;99.90
29725;DHT22;16636;48.394;15.468;2023-02-15T12:27:04;7.40;99.90
29725;DHT22;16636;48.394;15.468;2023-02-15T12:29:46;7.40;99.90
29725;DHT22;16636;48.394;15.468;2023-02-15T12:32:22;7.30;99.90
29725;DHT22;16636;48.394;15.468;2023-02-15T12:34:51;7.30;99.90
29725;DHT22;16636;48.394;15.468;2023-02-15T12:37:23;7.60;99.90
29725;DHT22;16636;48.394;15.468;2023-02-15T12:39:56;7.80;99.90
29725;DHT22;16636;48.394;15.468;2023-02-15T12:42:24;8.00;99.90
29725;DHT22;16636;48.394;15.468;2023-02-15T12:44:59;7.90;99.90
29725;DHT22;16636;48.394;15.468;2023-02-15T12:47:27;8.10;99.90
29725;DHT22;16636;48.394;15.468;2023-02-15T12:50:14;8.30;99.90
29725;DHT22;16636;48.394;15.468;2023-02-15T12:52:46;8.20;99.90
29725;DHT22;16636;48.394;15.468;2023-02-15T12:55:24;8.20;99.90
29725;DHT22;16636;48.394;15.468;2023-02-15T12:58:18;8.50;99.90
29725;DHT22;16636;48.394;15.468;2023-02-15T13:00:45;8.60;99.90
29725;DHT22;16636;48.394;15.468;2023-02-15T13:03:21;8.60;99.90
29725;DHT22;16636;48.394;15.468;2023-02-15T13:05:55;8.60;99.90
29725;DHT22;16636;48.394;15.468;2023-02-15T13:08:28;8.70;99.90
29725;DHT22;16636;48.394;15.468;2023-02-15T13:11:10;8.90;99.90
29725;DHT22;16636;48.394;15.468;2023-02-15T13:13:55;9.20;99.90
29725;DHT22;16636;48.394;15.468;2023-02-15T13:16:29;9.10;99.90
29725;DHT22;16636;48.394;15.468;2023-02-15T13:18:57;9.20;99.90
29725;DHT22;16636;48.394;15.468;2023-02-15T13:21:32;9.20;99.90
29725;DHT22;16636;48.394;15.468;2023-02-15T13:24:15;9.10;99.90
29725;DHT22;16636;48.394;15.468;2023-02-15T13:26:43;9.20;99.90
29725;DHT22;16636;48.394;15.468;2023-02-15T13:29:22;9.00;99.90
29725;DHT22;16636;48.394;15.468;2023-02-15T13:31:50;9.10;99.90
29725;DHT22;16636;48.394;15.468;2023-02-15T13:34:31;8.70;99.90
29725;DHT22;16636;48.394;15.468;2023-02-15T13:37:17;8.90;99.90
29725;DHT22;16636;48.394;15.468;2023-02-15T13:39:53;9.00;99.90
29725;DHT22;16636;48.394;15.468;2023-02-15T13:49:30;9.10;99.90
29725;DHT22;16636;48.394;15.468;2023-02-15T13:51:55;8.90;99.90
29725;DHT22;16636;48.394;15.468;2023-02-15T14:05:27;9.00;99.90
29725;DHT22;16636;48.394;15.468;2023-02-15T14:16:13;8.20;99.90
29725;DHT22;16636;48.394;15.468;2023-02-15T14:18:42;8.40;99.90
29725;DHT22;16636;48.394;15.468;2023-02-15T14:21:32;8.50;99.90
29725;DHT22;16636;48.394;15.468;2023-02-15T14:26:52;8.40;99.90
29725;DHT22;16636;48.394;15.468;2023-02-15T14:29:41;8.40;99.90
29725;DHT22;16636;48.394;15.468;2023-02-15T14:32:20;8.40;99.90
29725;DHT22;16636;48.394;15.468;2023-02-15T14:34:52;8.20;99.90
29725;DHT22;16636;48.394;15.468;2023-02-15T14:37:29;8.10;99.90
29725;DHT22;16636;48.394;15.468;2023-02-15T14:40:03;8.00;99.90
29725;DHT22;16636;48.394;15.468;2023-02-15T14:42:59;7.90;99.90
29725;DHT22;16636;48.394;15.468;2023-02-15T14:50:47;7.20;99.90
29725;DHT22;16636;48.394;15.468;2023-02-15T14:58:57;6.80;99.90
29725;DHT22;16636;48.394;15.468;2023-02-15T15:01:30;6.70;99.90
29725;DHT22;16636;48.394;15.468;2023-02-15T15:04:02;6.70;99.90
29725;DHT22;16636;48.394;15.468;2023-02-15T15:06:33;6.80;99.90
29725;DHT22;16636;48.394;15.468;2023-02-15T15:09:14;6.70;99.90
29725;DHT22;16636;48.394;15.468;2023-02-15T15:11:47;6.70;99.90
29725;DHT22;16636;48.394;15.468;2023-02-15T15:17:00;6.60;99.90
29725;DHT22;16636;48.394;15.468;2023-02-15T15:22:23;6.50;99.90
29725;DHT22;16636;48.394;15.468;2023-02-15T15:24:52;6.40;99.90
29725;DHT22;16636;48.394;15.468;2023-02-15T15:41:40;6.00;99.90
29725;DHT22;16636;48.394;15.468;2023-02-15T15:50:19;5.90;99.90
29725;DHT22;16636;48.394;15.468;2023-02-15T15:52:52;5.80;99.90
29725;DHT22;16636;48.394;15.468;2023-02-15T15:55:21;5.70;99.90
29725;DHT22;16636;48.394;15.468;2023-02-15T15:57:52;5.70;99.90
29725;DHT22;16636;48.394;15.468;2023-02-15T16:03:02;5.60;99.90
29725;DHT22;16636;48.394;15.468;2023-02-15T16:05:35;5.50;99.90
29725;DHT22;16636;48.394;15.468;2023-02-15T16:08:01;5.40;99.90
29725;DHT22;16636;48.394;15.468;2023-02-15T16:10:29;5.40;99.90
29725;DHT22;16636;48.394;15.468;2023-02-15T16:12:58;5.30;99.90
29725;DHT22;16636;48.394;15.468;2023-02-15T16:15:33;5.20;99.90
29725;DHT22;16636;48.394;15.468;2023-02-15T16:18:05;5.20;99.90
29725;DHT22;16636;48.394;15.468;2023-02-15T16:20:33;5.20;99.90
29725;DHT22;16636;48.394;15.468;2023-02-15T16:26:13;5.00;99.90
29725;DHT22;16636;48.394;15.468;2023-02-15T16:28:54;5.00;99.90
29725;DHT22;16636;48.394;15.468;2023-02-15T16:31:21;5.00;99.90
29725;DHT22;16636;48.394;15.468;2023-02-15T16:33:51;4.90;99.90
29725;DHT22;16636;48.394;15.468;2023-02-15T16:36:25;4.80;99.90
29725;DHT22;16636;48.394;15.468;2023-02-15T16:41:26;4.70;99.90
29725;DHT22;16636;48.394;15.468;2023-02-15T16:43:54;4.60;99.90
29725;DHT22;16636;48.394;15.468;2023-02-15T16:46:32;4.60;99.90
29725;DHT22;16636;48.394;15.468;2023-02-15T16:49:05;4.60;99.90
29725;DHT22;16636;48.394;15.468;2023-02-15T16:51:34;4.50;99.90
29725;DHT22;16636;48.394;15.468;2023-02-15T16:54:06;4.50;99.90
29725;DHT22;16636;48.394;15.468;2023-02-15T16:56:34;4.50;99.90
29725;DHT22;16636;48.394;15.468;2023-02-15T16:59:02;4.40;99.90
29725;DHT22;16636;48.394;15.468;2023-02-15T17:01:31;4.40;99.90
29725;DHT22;16636;48.394;15.468;2023-02-15T17:04:35;4.40;99.90
29725;DHT22;16636;48.394;15.468;2023-02-15T17:07:04;4.40;99.90
29725;DHT22;16636;48.394;15.468;2023-02-15T17:09:31;4.30;99.90
29725;DHT22;16636;48.394;15.468;2023-02-15T17:11:58;4.20;99.90
29725;DHT22;16636;48.394;15.468;2023-02-15T17:14:31;4.10;99.90
29725;DHT22;16636;48.394;15.468;2023-02-15T17:17:07;4.10;99.90
29725;DHT22;16636;48.394;15.468;2023-02-15T17:22:19;4.10;99.90
29725;DHT22;16636;48.394;15.468;2023-02-15T17:24:47;4.10;99.90
29725;DHT22;16636;48.394;15.468;2023-02-15T17:27:28;4.00;99.90
29725;DHT22;16636;48.394;15.468;2023-02-15T17:29:58;4.00;99.90
29725;DHT22;16636;48.394;15.468;2023-02-15T17:32:27;4.00;99.90
29725;DHT22;16636;48.394;15.468;2023-02-15T17:40:27;3.90;99.90
29725;DHT22;16636;48.394;15.468;2023-02-15T17:42:53;3.80;99.90
29725;DHT22;16636;48.394;15.468;2023-02-15T17:45:21;3.80;99.90
29725;DHT22;16636;48.394;15.468;2023-02-15T17:47:48;3.70;99.90
29725;DHT22;16636;48.394;15.468;2023-02-15T17:50:25;3.70;99.90
29725;DHT22;16636;48.394;15.468;2023-02-15T17:52:53;3.60;99.90
29725;DHT22;16636;48.394;15.468;2023-02-15T17:55:21;3.40;99.90
29725;DHT22;16636;48.394;15.468;2023-02-15T17:58:00;3.30;99.90
29725;DHT22;16636;48.394;15.468;2023-02-15T18:00:28;3.30;99.90
29725;DHT22;16636;48.394;15.468;2023-02-15T18:03:13;3.30;99.90
29725;DHT22;16636;48.394;15.468;2023-02-15T18:05:58;3.30;99.90
29725;DHT22;16636;48.394;15.468;2023-02-15T18:08:43;3.20;99.90
29725;DHT22;16636;48.394;15.468;2023-02-15T18:11:27;3.20;99.90
29725;DHT22;16636;48.394;15.468;2023-02-15T18:14:09;3.10;99.90
29725;DHT22;16636;48.394;15.468;2023-02-15T18:16:38;3.10;99.90
29725;DHT22;16636;48.394;15.468;2023-02-15T18:19:14;3.10;99.90
29725;DHT22;16636;48.394;15.468;2023-02-15T18:21:40;3.00;99.90
29725;DHT22;16636;48.394;15.468;2023-02-15T18:24:17;3.00;99.90
29725;DHT22;16636;48.394;15.468;2023-02-15T18:26:44;3.00;99.90
29725;DHT22;16636;48.394;15.468;2023-02-15T18:29:10;3.00;99.90
29725;DHT22;16636;48.394;15.468;2023-02-15T18:31:36;2.90;99.90
29725;DHT22;16636;48.394;15.468;2023-02-15T18:34:02;2.90;99.90
29725;DHT22;16636;48.394;15.468;2023-02-15T18:36:39;2.90;99.90